Time;durP1;ratioP1;P1;durP2;ratioP2;P2;SDS_P1;SDS_P2;PMS_P1;PMS_P2;Temp;Humidity;BMP_temperature;BMP_pressure;BME280_temperature;BME280_humidity;BME280_pressure;Samples;Min_cycle;Max_cycle;Signal;HPM_P1;HPM_P2
2022/11/16 00:00:15;;;;;;;;;;;13.20;99.90;13.60;98417.00;;;;342878;28;89211;-94
2022/11/16 00:00:27;;;;;;;;;;;13.20;99.90;13.60;98413.00;;;;344816;28;82573;-94
2022/11/16 00:00:38;;;;;;;;;;;13.20;99.90;13.60;98414.00;;;;346929;28;90297;-93
2022/11/16 00:00:59;;;;;;;;;;;13.20;99.90;13.50;98417.00;;;;343141;28;83609;-94
2022/11/16 00:01:14;;;;;;;;;;;13.20;99.90;13.50;98420.00;;;;344082;28;91184;-93
2022/11/16 00:01:27;;;;;;;;;;;13.20;99.90;13.50;98419.00;;;;346250;28;82347;-93
2022/11/16 00:01:39;;;;;;;;;;;13.20;99.90;13.50;98421.00;;;;345465;28;91859;-94
2022/11/16 00:01:51;;;;;;;;;;;13.20;99.90;13.50;98420.00;;;;344520;28;83507;-93
2022/11/16 00:02:02;;;;;;;;;;;13.20;99.90;13.50;98411.00;;;;343090;28;88963;-93
2022/11/16 00:02:14;;;;;;;;;;;13.20;99.90;13.50;98420.00;;;;345949;28;83542;-93
2022/11/16 00:02:26;;;;;;;;;;;13.20;99.90;13.50;98421.00;;;;344891;28;89025;-94
2022/11/16 00:02:38;;;;;;;;;;;13.20;99.90;13.50;98418.00;;;;345239;28;83150;-93
2022/11/16 00:02:50;;;;;;;;;;;13.20;99.90;13.50;98417.00;;;;346107;28;87961;-93
2022/11/16 00:03:03;;;;;;;;;;;13.20;99.90;13.50;98413.00;;;;345959;28;82613;-93
2022/11/16 00:03:15;;;;;;;;;;;13.20;99.90;13.50;98413.00;;;;345565;28;91518;-94
2022/11/16 00:03:27;;;;;;;;;;;13.20;99.90;13.40;98414.00;;;;344590;28;82544;-94
2022/11/16 00:03:38;;;;;;;;;;;13.20;99.90;13.40;98413.00;;;;344233;28;91251;-93
2022/11/16 00:03:51;;;;;;;;;;;13.20;99.90;13.40;98405.00;;;;344831;28;82632;-92
2022/11/16 00:04:03;;;;;;;;;;;13.20;99.90;13.50;98407.00;;;;343276;28;88255;-94
2022/11/16 00:04:15;;;;;;;;;;;13.20;99.90;13.60;98409.00;;;;343400;28;83330;-94
2022/11/16 00:04:27;;;;;;;;;;;13.20;99.90;13.50;98413.00;;;;344269;28;89639;-94
2022/11/16 00:04:38;;;;;;;;;;;13.20;99.90;13.50;98417.00;;;;345934;28;83625;-94
2022/11/16 00:04:50;;;;;;;;;;;13.20;99.90;13.60;98415.00;;;;347059;28;88394;-94
2022/11/16 00:05:02;;;;;;;;;;;13.20;99.90;13.60;98420.00;;;;346132;28;83437;-94
2022/11/16 00:05:14;;;;;;;;;;;13.20;99.90;13.50;98421.00;;;;348328;27;89232;-93
2022/11/16 00:05:26;;;;;;;;;;;13.20;99.90;13.50;98420.00;;;;344644;28;83456;-93
2022/11/16 00:05:39;;;;;;;;;;;13.20;99.90;13.50;98422.00;;;;344089;28;91827;-94
2022/11/16 00:05:56;;;;;;;;;;;13.20;99.90;13.50;98429.00;;;;344699;28;83481;-94
2022/11/16 00:06:09;;;;;;;;;;;13.20;99.90;13.50;98429.00;;;;345506;28;90256;-94
2022/11/16 00:06:20;;;;;;;;;;;13.20;99.90;13.40;98421.00;;;;343022;28;82669;-93
2022/11/16 00:06:32;;;;;;;;;;;13.20;99.90;13.50;98429.00;;;;345624;28;92143;-94
2022/11/16 00:06:45;;;;;;;;;;;13.20;99.90;13.40;98426.00;;;;346131;28;82415;-93
2022/11/16 00:06:57;;;;;;;;;;;13.20;99.90;13.50;98429.00;;;;344277;28;89058;-94
2022/11/16 00:07:09;;;;;;;;;;;13.20;99.90;13.50;98428.00;;;;347198;28;83343;-93
2022/11/16 00:07:21;;;;;;;;;;;13.20;99.90;13.50;98433.00;;;;345697;28;89500;-93
2022/11/16 00:07:33;;;;;;;;;;;13.20;99.90;13.50;98430.00;;;;344764;28;83285;-94
2022/11/16 00:07:45;;;;;;;;;;;13.20;99.90;13.50;98429.00;;;;344258;28;91313;-94
2022/11/16 00:07:56;;;;;;;;;;;13.20;99.90;13.50;98436.00;;;;343386;28;83418;-94
2022/11/16 00:08:08;;;;;;;;;;;13.20;99.90;13.50;98430.00;;;;345640;28;90165;-94
2022/11/16 00:08:20;;;;;;;;;;;13.20;99.90;13.50;98432.00;;;;342150;28;83364;-94
2022/11/16 00:08:33;;;;;;;;;;;13.20;99.90;13.50;98436.00;;;;342934;28;89667;-93
2022/11/16 00:09:20;;;;;;;;;;;13.20;99.90;13.50;98441.00;;;;344776;28;83380;-94
2022/11/16 00:09:21;;;;;;;;;;;13.20;99.90;13.50;98441.00;;;;342949;28;89470;-94
2022/11/16 00:09:33;;;;;;;;;;;13.20;99.90;13.50;98433.00;;;;344570;28;82528;-94
2022/11/16 00:09:44;;;;;;;;;;;13.20;99.90;13.50;98436.00;;;;344036;28;90939;-94
2022/11/16 00:09:56;;;;;;;;;;;13.20;99.90;13.50;98438.00;;;;342562;28;83597;-94
2022/11/16 00:10:10;;;;;;;;;;;13.20;99.90;13.50;98432.00;;;;343977;28;92034;-94
2022/11/16 00:10:21;;;;;;;;;;;13.20;99.90;13.50;98435.00;;;;346143;28;83512;-94
2022/11/16 00:10:33;;;;;;;;;;;13.20;99.90;13.50;98443.00;;;;344063;28;91834;-94
2022/11/16 00:10:45;;;;;;;;;;;13.20;99.90;13.60;98436.00;;;;344492;28;83486;-93
2022/11/16 00:11:26;;;;;;;;;;;13.20;99.90;13.50;98444.00;;;;343830;28;87253;-93
2022/11/16 00:11:38;;;;;;;;;;;13.20;99.90;13.50;98439.00;;;;341974;28;82557;-94
2022/11/16 00:11:53;;;;;;;;;;;13.20;99.90;13.50;98445.00;;;;339843;28;91607;-93
2022/11/16 00:12:05;;;;;;;;;;;13.20;99.90;13.60;98443.00;;;;339487;28;82621;-93
2022/11/16 00:12:17;;;;;;;;;;;13.20;99.90;13.50;98442.00;;;;340050;28;87077;-94
2022/11/16 00:12:29;;;;;;;;;;;13.20;99.90;13.60;98448.00;;;;340409;28;82548;-94
2022/11/16 00:12:41;;;;;;;;;;;13.20;99.90;13.50;98439.00;;;;340565;28;89580;-93
2022/11/16 00:12:52;;;;;;;;;;;13.20;99.90;13.50;98441.00;;;;340474;28;83539;-94
2022/11/16 00:13:04;;;;;;;;;;;13.20;99.90;13.60;98442.00;;;;338765;28;89757;-94
2022/11/16 00:13:16;;;;;;;;;;;13.20;99.90;13.60;98442.00;;;;340592;28;83486;-93
2022/11/16 00:13:29;;;;;;;;;;;13.20;99.90;13.50;98441.00;;;;339787;28;91492;-92
2022/11/16 00:13:42;;;;;;;;;;;13.20;99.90;13.50;98446.00;;;;339072;28;82563;-93
2022/11/16 00:13:54;;;;;;;;;;;13.20;99.90;13.50;98439.00;;;;345726;28;87407;-94
2022/11/16 00:14:05;;;;;;;;;;;13.20;99.90;13.50;98448.00;;;;341935;28;83452;-93
2022/11/16 00:14:18;;;;;;;;;;;13.20;99.90;13.50;98445.00;;;;339903;28;91954;-94
2022/11/16 00:14:32;;;;;;;;;;;13.20;99.90;13.40;98441.00;;;;341736;28;83539;-94
2022/11/16 00:14:43;;;;;;;;;;;13.20;99.90;13.50;98435.00;;;;341416;28;88077;-94
2022/11/16 00:14:55;;;;;;;;;;;13.20;99.90;13.60;98450.00;;;;339040;28;83438;-94
2022/11/16 00:15:07;;;;;;;;;;;13.20;99.90;13.70;98447.00;;;;339940;28;89773;-94
2022/11/16 00:15:19;;;;;;;;;;;13.20;99.90;13.60;98447.00;;;;339322;28;83380;-94
2022/11/16 00:15:31;;;;;;;;;;;13.20;99.90;13.70;98448.00;;;;340071;28;89252;-94
2022/11/16 00:15:42;;;;;;;;;;;13.20;99.90;13.70;98448.00;;;;340329;28;82679;-93
2022/11/16 00:15:57;;;;;;;;;;;13.30;99.90;13.70;98440.00;;;;340048;28;89242;-94
2022/11/16 00:16:14;;;;;;;;;;;13.30;99.90;13.70;98450.00;;;;340199;28;82385;-94
2022/11/16 00:16:26;;;;;;;;;;;13.20;99.90;13.80;98448.00;;;;341390;28;88242;-93
2022/11/16 00:16:38;;;;;;;;;;;13.20;99.90;13.80;98447.00;;;;340555;28;82430;-93
2022/11/16 00:16:50;;;;;;;;;;;13.30;99.90;13.70;98451.00;;;;338563;28;91663;-94
2022/11/16 00:17:02;;;;;;;;;;;13.30;99.90;13.70;98435.00;;;;337921;28;82547;-93
2022/11/16 00:17:14;;;;;;;;;;;13.30;99.90;13.70;98445.00;;;;339933;28;89844;-93
2022/11/16 00:17:25;;;;;;;;;;;13.30;99.90;13.70;98445.00;;;;339279;28;82476;-93
2022/11/16 00:17:38;;;;;;;;;;;13.30;99.90;13.60;98440.00;;;;338801;28;89414;-93
2022/11/16 00:17:49;;;;;;;;;;;13.30;99.90;13.60;98444.00;;;;339158;28;82550;-94
2022/11/16 00:18:01;;;;;;;;;;;13.30;99.90;13.70;98442.00;;;;344345;28;89165;-93
2022/11/16 00:18:13;;;;;;;;;;;13.30;99.90;13.70;98448.00;;;;344738;28;82586;-93
2022/11/16 00:18:25;;;;;;;;;;;13.30;99.90;13.80;98448.00;;;;345719;28;88251;-94
2022/11/16 00:18:36;;;;;;;;;;;13.30;99.90;13.70;98446.00;;;;344862;28;83318;-93
2022/11/16 00:18:52;;;;;;;;;;;13.30;99.90;13.70;98446.00;;;;339690;28;91049;-94
2022/11/16 00:19:04;;;;;;;;;;;13.30;99.90;13.70;98451.00;;;;338884;28;82660;-94
2022/11/16 00:19:16;;;;;;;;;;;13.30;99.90;13.60;98450.00;;;;340213;28;88174;-93
2022/11/16 00:19:28;;;;;;;;;;;13.30;99.90;13.60;98451.00;;;;339213;28;83537;-93
2022/11/16 00:19:39;;;;;;;;;;;13.30;99.90;13.60;98451.00;;;;340279;28;89463;-94
2022/11/16 00:19:51;;;;;;;;;;;13.30;99.90;13.60;98454.00;;;;340454;28;82556;-93
2022/11/16 00:20:04;;;;;;;;;;;13.30;99.90;13.70;98450.00;;;;337639;28;87990;-94
2022/11/16 00:20:16;;;;;;;;;;;13.30;99.90;13.70;98461.00;;;;340629;28;83481;-94
2022/11/16 00:20:29;;;;;;;;;;;13.30;99.90;13.70;98453.00;;;;338683;28;89369;-94
2022/11/16 00:20:41;;;;;;;;;;;13.30;99.90;13.70;98455.00;;;;339327;28;82300;-94
2022/11/16 00:20:53;;;;;;;;;;;13.30;99.90;13.70;98452.00;;;;338706;28;89375;-93
2022/11/16 00:21:05;;;;;;;;;;;13.30;99.90;13.60;98456.00;;;;340286;28;83507;-94
2022/11/16 00:21:17;;;;;;;;;;;13.30;99.90;13.70;98464.00;;;;338996;28;88076;-94
2022/11/16 00:21:29;;;;;;;;;;;13.30;99.90;13.70;98458.00;;;;337928;28;83341;-94
2022/11/16 00:21:41;;;;;;;;;;;13.30;99.90;13.60;98466.00;;;;339873;28;91067;-94
2022/11/16 00:21:53;;;;;;;;;;;13.30;99.90;13.60;98464.00;;;;340284;28;82555;-94
2022/11/16 00:22:04;;;;;;;;;;;13.30;99.90;13.70;98466.00;;;;339839;28;88427;-94
2022/11/16 00:22:16;;;;;;;;;;;13.30;99.90;13.70;98464.00;;;;340584;28;82428;-93
2022/11/16 00:22:28;;;;;;;;;;;13.30;99.90;13.60;98473.00;;;;338681;28;88384;-93
2022/11/16 00:22:40;;;;;;;;;;;13.30;99.90;13.60;98474.00;;;;339008;28;84092;-94
2022/11/16 00:22:52;;;;;;;;;;;13.30;99.90;13.70;98474.00;;;;339919;28;90414;-93
2022/11/16 00:23:03;;;;;;;;;;;13.30;99.90;13.70;98461.00;;;;340509;28;82496;-94
2022/11/16 00:23:16;;;;;;;;;;;13.30;99.90;13.60;98472.00;;;;337399;28;89345;-94
2022/11/16 00:23:28;;;;;;;;;;;13.30;99.90;13.60;98469.00;;;;339213;28;82410;-94
2022/11/16 00:23:40;;;;;;;;;;;13.30;99.90;13.60;98474.00;;;;339937;28;90667;-93
2022/11/16 00:23:51;;;;;;;;;;;13.30;99.90;13.50;98473.00;;;;339083;28;82566;-94
2022/11/16 00:24:04;;;;;;;;;;;13.30;99.90;13.40;98479.00;;;;338664;28;90133;-94
2022/11/16 00:24:17;;;;;;;;;;;13.30;99.90;13.40;98471.00;;;;340287;28;82602;-93
2022/11/16 00:24:28;;;;;;;;;;;13.20;99.90;13.30;98478.00;;;;339419;28;90244;-94
2022/11/16 00:24:40;;;;;;;;;;;13.30;99.90;13.30;98471.00;;;;339054;28;84198;-94
2022/11/16 00:24:52;;;;;;;;;;;13.20;99.90;13.20;98473.00;;;;339976;28;93131;-93
2022/11/16 00:25:04;;;;;;;;;;;13.20;99.90;13.30;98474.00;;;;345996;28;83388;-93
2022/11/16 00:25:16;;;;;;;;;;;13.20;99.90;13.20;98478.00;;;;339820;28;90083;-94
2022/11/16 00:25:27;;;;;;;;;;;13.20;99.90;13.20;98477.00;;;;339168;28;82296;-94
2022/11/16 00:25:39;;;;;;;;;;;13.20;99.90;13.30;98485.00;;;;340096;28;86607;-94
2022/11/16 00:25:52;;;;;;;;;;;13.20;99.90;13.40;98487.00;;;;339117;28;82592;-94
2022/11/16 00:26:07;;;;;;;;;;;13.20;99.90;13.30;98481.00;;;;338427;28;89960;-93
2022/11/16 00:26:19;;;;;;;;;;;13.20;99.90;13.30;98485.00;;;;339044;28;83621;-93
2022/11/16 00:26:30;;;;;;;;;;;13.20;99.90;13.50;98482.00;;;;341375;28;88822;-94
2022/11/16 00:26:42;;;;;;;;;;;13.20;99.90;13.50;98484.00;;;;340504;28;83248;-94
2022/11/16 00:26:55;;;;;;;;;;;13.20;99.90;13.40;98481.00;;;;338723;28;87822;-94
2022/11/16 00:27:06;;;;;;;;;;;13.20;99.90;13.50;98484.00;;;;340233;28;83304;-94
2022/11/16 00:27:18;;;;;;;;;;;13.20;99.90;13.60;98483.00;;;;340095;28;89605;-93
2022/11/16 00:27:30;;;;;;;;;;;13.20;99.90;13.50;98480.00;;;;340536;28;83300;-94
2022/11/16 00:27:41;;;;;;;;;;;13.20;99.90;13.40;98481.00;;;;338689;28;89005;-92
2022/11/16 00:27:53;;;;;;;;;;;13.20;99.90;13.40;98478.00;;;;340467;28;82560;-93
2022/11/16 00:28:05;;;;;;;;;;;13.20;99.90;13.40;98489.00;;;;338686;28;90386;-94
2022/11/16 00:28:17;;;;;;;;;;;13.20;99.90;13.40;98489.00;;;;337419;28;83585;-93
2022/11/16 00:28:28;;;;;;;;;;;13.20;99.90;13.30;98488.00;;;;337191;28;90385;-94
2022/11/16 00:28:40;;;;;;;;;;;13.20;99.90;13.30;98486.00;;;;339572;28;82346;-94
2022/11/16 00:28:52;;;;;;;;;;;13.20;99.90;13.40;98489.00;;;;336937;28;89442;-94
2022/11/16 00:29:04;;;;;;;;;;;13.20;99.90;13.40;98483.00;;;;337896;28;83361;-94
2022/11/16 00:29:21;;;;;;;;;;;13.20;99.90;13.40;98488.00;;;;338700;28;89336;-94
2022/11/16 00:29:32;;;;;;;;;;;13.20;99.90;13.40;98486.00;;;;341685;28;82558;-94
2022/11/16 00:29:44;;;;;;;;;;;13.20;99.90;13.40;98488.00;;;;339934;28;90520;-94
2022/11/16 00:29:56;;;;;;;;;;;13.10;99.90;13.30;98494.00;;;;339100;28;83310;-93
2022/11/16 00:30:09;;;;;;;;;;;13.20;99.90;13.30;98488.00;;;;339849;28;90399;-94
2022/11/16 00:30:21;;;;;;;;;;;13.20;99.90;13.40;98489.00;;;;339213;28;83592;-92
2022/11/16 00:30:32;;;;;;;;;;;13.20;99.90;13.50;98484.00;;;;340043;28;89613;-94
2022/11/16 00:30:44;;;;;;;;;;;13.10;99.90;13.60;98489.00;;;;341570;28;83287;-94
2022/11/16 00:30:58;;;;;;;;;;;13.20;99.90;13.50;98493.00;;;;338299;28;91391;-95
2022/11/16 00:31:10;;;;;;;;;;;13.20;99.90;13.60;98491.00;;;;339102;28;82556;-94
2022/11/16 00:31:22;;;;;;;;;;;13.20;99.90;13.60;98487.00;;;;339733;28;91153;-94
2022/11/16 00:31:33;;;;;;;;;;;13.20;99.90;13.50;98485.00;;;;339186;28;83171;-93
2022/11/16 00:31:45;;;;;;;;;;;13.20;99.90;13.50;98493.00;;;;338627;28;88423;-94
2022/11/16 00:31:57;;;;;;;;;;;13.20;99.90;13.50;98490.00;;;;337869;28;83353;-93
2022/11/16 00:32:09;;;;;;;;;;;13.20;99.90;13.40;98500.00;;;;337350;28;86292;-94
2022/11/16 00:32:22;;;;;;;;;;;13.20;99.90;13.40;98489.00;;;;339041;28;83633;-90
2022/11/16 00:32:33;;;;;;;;;;;13.20;99.90;13.40;98492.00;;;;336049;28;89511;-93
2022/11/16 00:32:45;;;;;;;;;;;13.20;99.90;13.30;98495.00;;;;339183;28;83380;-93
2022/11/16 00:33:00;;;;;;;;;;;13.20;99.90;13.30;98499.00;;;;339659;28;92382;-94
2022/11/16 00:33:14;;;;;;;;;;;13.20;99.90;13.30;98502.00;;;;338989;28;82623;-94
2022/11/16 00:33:26;;;;;;;;;;;13.20;99.90;13.30;98500.00;;;;337408;28;87537;-93
2022/11/16 00:33:38;;;;;;;;;;;13.20;99.90;13.30;98497.00;;;;338945;28;83514;-95
2022/11/16 00:33:49;;;;;;;;;;;13.20;99.90;13.30;98500.00;;;;338663;28;89445;-94
2022/11/16 00:34:01;;;;;;;;;;;13.20;99.90;13.30;98499.00;;;;337887;28;82446;-94
2022/11/16 00:34:13;;;;;;;;;;;13.10;99.90;13.30;98501.00;;;;337339;28;90086;-94
2022/11/16 00:34:25;;;;;;;;;;;13.10;99.90;13.30;98501.00;;;;340327;28;83484;-94
2022/11/16 00:34:38;;;;;;;;;;;13.10;99.90;13.40;98496.00;;;;338729;28;88320;-93
2022/11/16 00:34:50;;;;;;;;;;;13.10;99.90;13.30;98496.00;;;;340397;28;83518;-94
2022/11/16 00:35:02;;;;;;;;;;;13.10;99.90;13.30;98495.00;;;;339958;28;89998;-93
2022/11/16 00:35:14;;;;;;;;;;;13.10;99.90;13.30;98503.00;;;;339173;28;83549;-94
2022/11/16 00:35:25;;;;;;;;;;;13.10;99.90;13.30;98504.00;;;;336097;28;87637;-93
2022/11/16 00:35:38;;;;;;;;;;;13.10;99.90;13.30;98508.00;;;;337786;28;83449;-94
2022/11/16 00:35:50;;;;;;;;;;;13.10;99.90;13.30;98502.00;;;;338358;28;89439;-94
2022/11/16 00:36:06;;;;;;;;;;;13.10;99.90;13.30;98507.00;;;;339195;28;82505;-94
2022/11/16 00:36:18;;;;;;;;;;;13.10;99.90;13.30;98512.00;;;;336836;28;87291;-93
2022/11/16 00:36:30;;;;;;;;;;;13.10;99.90;13.30;98502.00;;;;339003;28;83487;-94
2022/11/16 00:36:42;;;;;;;;;;;13.10;99.90;13.30;98501.00;;;;340009;28;90806;-94
2022/11/16 00:36:53;;;;;;;;;;;13.10;99.90;13.30;98499.00;;;;340379;28;82605;-93
2022/11/16 00:37:05;;;;;;;;;;;13.10;99.90;13.40;98498.00;;;;337022;28;93159;-93
2022/11/16 00:37:17;;;;;;;;;;;13.10;99.90;13.30;98498.00;;;;339131;28;82513;-93
2022/11/16 00:37:29;;;;;;;;;;;13.10;99.90;13.40;98505.00;;;;338594;28;89884;-94
2022/11/16 00:37:40;;;;;;;;;;;13.10;99.90;13.30;98504.00;;;;341741;28;83453;-94
2022/11/16 00:37:52;;;;;;;;;;;13.10;99.90;13.30;98498.00;;;;338744;28;87891;-93
2022/11/16 00:38:05;;;;;;;;;;;13.10;99.90;13.30;98507.00;;;;338901;28;83367;-93
2022/11/16 00:38:16;;;;;;;;;;;13.10;99.90;13.30;98504.00;;;;338752;28;88194;-94
2022/11/16 00:38:28;;;;;;;;;;;13.10;99.90;13.30;98505.00;;;;339070;28;83697;-94
2022/11/16 00:38:40;;;;;;;;;;;13.10;99.90;13.30;98509.00;;;;338769;28;90411;-93
2022/11/16 00:38:52;;;;;;;;;;;13.10;99.90;13.30;98505.00;;;;337796;28;83420;-93
2022/11/16 00:39:04;;;;;;;;;;;13.10;99.90;13.30;98506.00;;;;336963;28;93073;-94
2022/11/16 00:39:16;;;;;;;;;;;13.10;99.90;13.30;98507.00;;;;340469;28;82629;-94
2022/11/16 00:39:28;;;;;;;;;;;13.10;99.90;13.30;98505.00;;;;341419;28;88702;-93
2022/11/16 00:39:40;;;;;;;;;;;13.10;99.90;13.30;98506.00;;;;338931;28;82575;-94
2022/11/16 00:39:51;;;;;;;;;;;13.10;99.90;13.30;98509.00;;;;341181;28;90442;-93
2022/11/16 00:40:04;;;;;;;;;;;13.10;99.90;13.30;98514.00;;;;340142;28;83492;-93
2022/11/16 00:40:15;;;;;;;;;;;13.10;99.90;13.30;98516.00;;;;340041;28;87689;-93
2022/11/16 00:40:27;;;;;;;;;;;13.10;99.90;13.20;98512.00;;;;339026;28;83450;-93
2022/11/16 00:40:39;;;;;;;;;;;13.10;99.90;13.30;98511.00;;;;337175;28;90238;-94
2022/11/16 00:40:51;;;;;;;;;;;13.10;99.90;13.30;98513.00;;;;339174;28;83625;-94
2022/11/16 00:41:03;;;;;;;;;;;13.10;99.90;13.30;98515.00;;;;339910;28;89303;-93
2022/11/16 00:41:14;;;;;;;;;;;13.10;99.90;13.30;98523.00;;;;340318;28;83571;-93
2022/11/16 00:41:26;;;;;;;;;;;13.10;99.90;13.30;98511.00;;;;339592;28;88779;-93
2022/11/16 00:41:38;;;;;;;;;;;13.10;99.90;13.20;98514.00;;;;337755;28;83506;-94
2022/11/16 00:41:50;;;;;;;;;;;13.10;99.90;13.20;98517.00;;;;338595;28;89813;-94
2022/11/16 00:42:01;;;;;;;;;;;13.10;99.90;13.20;98514.00;;;;339150;28;82521;-94
2022/11/16 00:42:13;;;;;;;;;;;13.10;99.90;13.20;98518.00;;;;340535;28;89344;-94
2022/11/16 00:42:25;;;;;;;;;;;13.10;99.90;13.30;98517.00;;;;349920;27;83568;-94
2022/11/16 00:42:36;;;;;;;;;;;13.10;99.90;13.30;98518.00;;;;346568;28;91099;-94
2022/11/16 00:42:51;;;;;;;;;;;13.10;99.90;13.30;98516.00;;;;347318;28;83570;-94
2022/11/16 00:43:03;;;;;;;;;;;13.00;99.90;13.30;98522.00;;;;346800;27;92802;-94
2022/11/16 00:43:14;;;;;;;;;;;13.10;99.90;13.30;98512.00;;;;347326;28;83478;-94
2022/11/16 00:43:26;;;;;;;;;;;13.10;99.90;13.30;98520.00;;;;348186;27;89729;-93
2022/11/16 00:43:38;;;;;;;;;;;13.00;99.90;13.30;98530.00;;;;344685;28;83518;-94
2022/11/16 00:43:50;;;;;;;;;;;13.10;99.90;13.30;98522.00;;;;345364;28;87094;-93
2022/11/16 00:44:01;;;;;;;;;;;13.10;99.90;13.30;98531.00;;;;347604;28;82401;-93
2022/11/16 00:44:13;;;;;;;;;;;13.00;99.90;13.40;98531.00;;;;347074;28;89568;-93
2022/11/16 00:44:25;;;;;;;;;;;13.00;99.90;13.30;98522.00;;;;347244;28;82655;-94
2022/11/16 00:44:37;;;;;;;;;;;13.00;99.90;13.30;98526.00;;;;347121;28;86574;-93
2022/11/16 00:44:48;;;;;;;;;;;13.10;99.90;13.30;98531.00;;;;347517;28;83394;-93
2022/11/16 00:45:00;;;;;;;;;;;13.10;99.90;13.30;98536.00;;;;349810;27;90131;-94
2022/11/16 00:45:12;;;;;;;;;;;13.10;99.90;13.30;98534.00;;;;347457;28;83470;-94
2022/11/16 00:45:24;;;;;;;;;;;13.10;99.90;13.30;98527.00;;;;348199;27;90181;-93
2022/11/16 00:45:38;;;;;;;;;;;13.10;99.90;13.30;98526.00;;;;346940;28;83441;-94
2022/11/16 00:45:50;;;;;;;;;;;13.10;99.90;13.30;98538.00;;;;348203;27;89113;-94
2022/11/16 00:46:02;;;;;;;;;;;13.10;99.90;13.30;98536.00;;;;347299;28;83581;-94
2022/11/16 00:46:14;;;;;;;;;;;13.10;99.90;13.40;98523.00;;;;348220;27;91911;-94
2022/11/16 00:46:26;;;;;;;;;;;13.10;99.90;13.40;98536.00;;;;347143;28;82571;-94
2022/11/16 00:46:37;;;;;;;;;;;13.10;99.90;13.40;98538.00;;;;347017;28;89510;-94
2022/11/16 00:46:49;;;;;;;;;;;13.10;99.90;13.30;98539.00;;;;347509;28;83318;-95
2022/11/16 00:47:01;;;;;;;;;;;13.10;99.90;13.30;98536.00;;;;345292;28;91455;-93
2022/11/16 00:47:13;;;;;;;;;;;13.10;99.90;13.30;98534.00;;;;347425;28;83355;-94
2022/11/16 00:47:26;;;;;;;;;;;13.10;99.90;13.40;98520.00;;;;346967;28;88701;-93
2022/11/16 00:47:37;;;;;;;;;;;13.10;99.90;13.30;98536.00;;;;346127;28;83433;-94
2022/11/16 00:47:49;;;;;;;;;;;13.10;99.90;13.40;98529.00;;;;345702;28;86377;-94
2022/11/16 00:48:01;;;;;;;;;;;13.10;99.90;13.30;98534.00;;;;348687;27;83571;-94
2022/11/16 00:48:13;;;;;;;;;;;13.10;99.90;13.30;98530.00;;;;345717;28;88462;-94
2022/11/16 00:48:25;;;;;;;;;;;13.10;99.90;13.30;98527.00;;;;345944;28;83325;-93
2022/11/16 00:48:36;;;;;;;;;;;13.10;99.90;13.30;98530.00;;;;344208;28;88939;-93
2022/11/16 00:48:48;;;;;;;;;;;13.10;99.90;13.30;98531.00;;;;346130;28;82466;-93
2022/11/16 00:49:00;;;;;;;;;;;13.10;99.90;13.40;98539.00;;;;348356;27;89940;-94
2022/11/16 00:49:12;;;;;;;;;;;13.10;99.90;13.40;98530.00;;;;348638;27;83617;-94
2022/11/16 00:49:23;;;;;;;;;;;13.10;99.90;13.40;98528.00;;;;346720;28;90184;-94
2022/11/16 00:49:37;;;;;;;;;;;13.10;99.90;13.40;98527.00;;;;348651;27;82614;-93
2022/11/16 00:49:48;;;;;;;;;;;13.10;99.90;13.30;98529.00;;;;348149;27;89232;-94
2022/11/16 00:50:00;;;;;;;;;;;13.10;99.90;13.30;98522.00;;;;346190;28;83329;-94
2022/11/16 00:50:12;;;;;;;;;;;13.10;99.90;13.30;98522.00;;;;345621;28;88127;-93
2022/11/16 00:50:24;;;;;;;;;;;13.10;99.90;13.20;98520.00;;;;345895;28;83603;-93
2022/11/16 00:50:35;;;;;;;;;;;13.10;99.90;13.20;98529.00;;;;348383;27;90249;-93
2022/11/16 00:50:48;;;;;;;;;;;13.00;99.90;13.10;98529.00;;;;348669;27;83490;-94
2022/11/16 00:51:00;;;;;;;;;;;13.00;99.90;13.10;98537.00;;;;348059;27;91175;-93
2022/11/16 00:51:12;;;;;;;;;;;13.00;99.90;13.00;98526.00;;;;350304;27;82517;-94
2022/11/16 00:51:24;;;;;;;;;;;13.00;99.90;13.00;98520.00;;;;345527;28;89428;-93
2022/11/16 00:51:36;;;;;;;;;;;13.00;99.90;13.00;98526.00;;;;347196;28;82563;-93
2022/11/16 00:51:47;;;;;;;;;;;13.00;99.90;13.00;98524.00;;;;348380;27;87313;-93
2022/11/16 00:51:59;;;;;;;;;;;13.00;99.90;13.00;98526.00;;;;347291;28;82571;-93
2022/11/16 00:52:11;;;;;;;;;;;12.90;99.90;13.00;98534.00;;;;345521;28;88740;-93
2022/11/16 00:52:22;;;;;;;;;;;13.00;99.90;13.00;98525.00;;;;348876;27;82494;-94
2022/11/16 00:52:34;;;;;;;;;;;13.00;99.90;13.00;98518.00;;;;348424;27;88459;-95
2022/11/16 00:52:46;;;;;;;;;;;13.00;99.90;13.00;98530.00;;;;347315;28;83501;-93
2022/11/16 00:52:58;;;;;;;;;;;12.90;99.90;12.90;98530.00;;;;346752;28;91416;-94
2022/11/16 00:53:14;;;;;;;;;;;12.90;99.90;12.90;98527.00;;;;345898;28;82644;-94
2022/11/16 00:53:26;;;;;;;;;;;12.90;99.90;12.90;98524.00;;;;347162;28;86753;-93
2022/11/16 00:53:37;;;;;;;;;;;12.90;99.90;12.90;98525.00;;;;347226;28;82561;-94
2022/11/16 00:53:49;;;;;;;;;;;12.90;99.90;12.90;98525.00;;;;346647;28;91547;-94
2022/11/16 00:54:01;;;;;;;;;;;12.90;99.90;13.00;98519.00;;;;347310;28;83564;-93
2022/11/16 00:54:13;;;;;;;;;;;12.90;99.90;13.00;98528.00;;;;345413;28;88893;-93
2022/11/16 00:54:25;;;;;;;;;;;12.80;99.90;13.00;98536.00;;;;347131;28;83529;-93
2022/11/16 00:54:36;;;;;;;;;;;12.80;99.90;13.00;98530.00;;;;346741;28;92011;-92
2022/11/16 00:54:48;;;;;;;;;;;12.90;99.90;13.00;98526.00;;;;348389;27;83573;-93
2022/11/16 00:55:00;;;;;;;;;;;12.80;99.90;13.00;98529.00;;;;347052;28;88064;-93
2022/11/16 00:55:12;;;;;;;;;;;12.80;99.90;13.10;98529.00;;;;348813;27;83527;-93
2022/11/16 00:55:23;;;;;;;;;;;12.80;99.90;13.10;98527.00;;;;348214;27;90271;-94
2022/11/16 00:55:36;;;;;;;;;;;12.80;99.90;13.10;98537.00;;;;347478;28;82508;-93
2022/11/16 00:55:48;;;;;;;;;;;12.80;99.90;13.20;98527.00;;;;345649;28;88085;-93
2022/11/16 00:55:59;;;;;;;;;;;12.80;99.90;13.10;98527.00;;;;345766;28;83497;-93
2022/11/16 00:56:11;;;;;;;;;;;12.90;99.90;13.10;98518.00;;;;346825;28;89481;-93
2022/11/16 00:56:23;;;;;;;;;;;12.90;99.90;13.10;98524.00;;;;347146;28;82627;-94
2022/11/16 00:56:35;;;;;;;;;;;12.80;99.90;13.20;98519.00;;;;345660;28;87967;-93
2022/11/16 00:56:47;;;;;;;;;;;12.80;99.90;13.20;98526.00;;;;346151;28;82497;-93
2022/11/16 00:56:58;;;;;;;;;;;12.80;99.90;13.30;98522.00;;;;346944;28;89285;-93
2022/11/16 00:57:10;;;;;;;;;;;12.90;99.90;13.30;98524.00;;;;347420;28;83549;-93
2022/11/16 00:57:22;;;;;;;;;;;12.90;99.90;13.30;98515.00;;;;346770;28;87155;-94
2022/11/16 00:57:35;;;;;;;;;;;12.80;99.90;13.30;98520.00;;;;347463;28;83323;-94
2022/11/16 00:57:46;;;;;;;;;;;12.90;99.90;13.30;98519.00;;;;346767;28;91218;-93
2022/11/16 00:57:58;;;;;;;;;;;12.90;99.90;13.20;98517.00;;;;347465;28;82586;-94
2022/11/16 00:58:10;;;;;;;;;;;12.90;99.90;13.10;98515.00;;;;347064;28;91559;-92
2022/11/16 00:58:22;;;;;;;;;;;12.90;99.90;13.20;98509.00;;;;350160;27;83511;-93
2022/11/16 00:58:34;;;;;;;;;;;12.90;99.90;13.20;98517.00;;;;348371;27;91651;-93
2022/11/16 00:58:46;;;;;;;;;;;12.90;99.90;13.20;98516.00;;;;347402;28;82501;-93
2022/11/16 00:58:58;;;;;;;;;;;12.90;99.90;13.10;98510.00;;;;345488;28;93144;-93
2022/11/16 00:59:10;;;;;;;;;;;12.90;99.90;13.00;98507.00;;;;345921;28;83441;-94
2022/11/16 00:59:21;;;;;;;;;;;12.90;99.90;13.00;98511.00;;;;346967;28;91848;-93
2022/11/16 00:59:33;;;;;;;;;;;12.90;99.90;12.90;98510.00;;;;348831;27;83487;-93
2022/11/16 00:59:45;;;;;;;;;;;12.80;99.90;12.90;98503.00;;;;348128;27;90857;-93
2022/11/16 00:59:56;;;;;;;;;;;12.90;99.90;12.90;98509.00;;;;347421;28;82437;-93
2022/11/16 01:00:11;;;;;;;;;;;12.80;99.90;12.90;98506.00;;;;346993;28;90561;-94
2022/11/16 01:00:23;;;;;;;;;;;12.90;99.90;12.80;98505.00;;;;346973;28;83474;-93
2022/11/16 01:00:34;;;;;;;;;;;12.80;99.90;12.90;98503.00;;;;346828;28;91811;-93
2022/11/16 01:00:46;;;;;;;;;;;12.80;99.90;13.00;98501.00;;;;347425;28;83426;-92
2022/11/16 01:01:03;;;;;;;;;;;12.80;99.90;12.90;98502.00;;;;348326;27;91780;-93